PWSweather.com
Personal Weather Stations
Station Observations
WAIROAHB
Wairoa, Northern Hawkes Bay -NZ 4108

WairoaNorthern Hawkes Bay -NZ 4108

Lat: -39.04516934, Lon: 177.4263989

Elevation: 156

Station Type: WS3083

http://wairoa.net/weather/index.htm

High Low Average
Temperature 86.5°F30.3°C 61.2°F16.2°C 74.4°F23.6°C
Dew Point 68.9°F20.5°C 60.6°F15.9°C 64.4°F18.0°C
Winds 9.2 mph 14.8 kmh Calm Calm 3.0 mph S4.8 kmh S
Wind Gusts 13.0 mph20.9 kmh -- 7.0 mph11.3 kmh
Humidity 99% 47% 74%
Pressure 29.87 in1011.5 mb 29.75 in1007.5 mb -
Precipitation 0.00 in0.0 mm - -
Hour Temp Dew Point Humidity Winds Wind Gusts Pressure Precip Precip Rate Daily Precip Total
12:00 AM 65.1°F18.4°C 64.9°F18.3°C 99% Calm Calm -- 29.87 in1011.5 mb 0.00 in0.0 mm 0.00 in0.0 mm 0.00 in0.0 mm
12:10 AM 64.6°F18.1°C 64.3°F17.9°C 99% Calm Calm -- 29.86 in1011.2 mb 0.00 in0.0 mm 0.00 in0.0 mm 0.00 in0.0 mm
12:20 AM 64.6°F18.1°C 64.3°F17.9°C 99% Calm Calm -- 29.86 in1011.2 mb 0.00 in0.0 mm 0.00 in0.0 mm 0.00 in0.0 mm
12:30 AM 64.4°F18.0°C 64.1°F17.8°C 99% Calm Calm -- 29.86 in1011.2 mb 0.00 in0.0 mm 0.00 in0.0 mm 0.00 in0.0 mm
12:40 AM 64.4°F18.0°C 64.1°F17.8°C 99% Calm Calm -- 29.86 in1011.2 mb 0.00 in0.0 mm 0.00 in0.0 mm 0.00 in0.0 mm
12:50 AM 64.2°F17.9°C 63.4°F17.4°C 97% Calm Calm -- 29.85 in1010.8 mb 0.00 in0.0 mm 0.00 in0.0 mm 0.00 in0.0 mm
01:00 AM 64.0°F17.8°C 63.2°F17.3°C 97% Calm Calm -- 29.84 in1010.5 mb 0.00 in0.0 mm 0.00 in0.0 mm 0.00 in0.0 mm
01:10 AM 64.0°F17.8°C 63.2°F17.3°C 97% Calm Calm -- 29.84 in1010.5 mb 0.00 in0.0 mm 0.00 in0.0 mm 0.00 in0.0 mm
01:20 AM 63.9°F17.7°C 63.0°F17.2°C 97% Calm Calm -- 29.83 in1010.2 mb 0.00 in0.0 mm 0.00 in0.0 mm 0.00 in0.0 mm
01:30 AM 63.9°F17.7°C 63.0°F17.2°C 97% 0.7 mph WNW1.1 kmh WNW 2.2 mph3.5 kmh 29.83 in1010.2 mb 0.00 in0.0 mm 0.00 in0.0 mm 0.00 in0.0 mm
01:40 AM 63.9°F17.7°C 63.0°F17.2°C 97% 1.6 mph NW2.6 kmh NW 3.8 mph6.1 kmh 29.83 in1010.2 mb 0.00 in0.0 mm 0.00 in0.0 mm 0.00 in0.0 mm
01:50 AM 63.9°F17.7°C 63.0°F17.2°C 97% 2.2 mph NW3.5 kmh NW 4.5 mph7.2 kmh 29.83 in1010.2 mb 0.00 in0.0 mm 0.00 in0.0 mm 0.00 in0.0 mm
02:00 AM 63.7°F17.6°C 62.8°F17.1°C 97% Calm Calm 3.1 mph5.0 kmh 29.83 in1010.2 mb 0.00 in0.0 mm 0.00 in0.0 mm 0.00 in0.0 mm
02:10 AM 63.3°F17.4°C 62.5°F16.9°C 97% 1.6 mph NNW2.6 kmh NNW 3.1 mph5.0 kmh 29.82 in1009.8 mb 0.00 in0.0 mm 0.00 in0.0 mm 0.00 in0.0 mm
02:20 AM 63.3°F17.4°C 62.5°F16.9°C 97% Calm Calm 3.1 mph5.0 kmh 29.81 in1009.5 mb 0.00 in0.0 mm 0.00 in0.0 mm 0.00 in0.0 mm
02:30 AM 63.5°F17.5°C 62.7°F17.1°C 97% 4.5 mph NNE7.2 kmh NNE 7.6 mph12.2 kmh 29.81 in1009.5 mb 0.00 in0.0 mm 0.00 in0.0 mm 0.00 in0.0 mm
02:40 AM 63.5°F17.5°C 62.7°F17.1°C 97% Calm Calm 6.0 mph9.7 kmh 29.81 in1009.5 mb 0.00 in0.0 mm 0.00 in0.0 mm 0.00 in0.0 mm
02:50 AM 63.3°F17.4°C 62.5°F16.9°C 97% Calm Calm -- 29.81 in1009.5 mb 0.00 in0.0 mm 0.00 in0.0 mm 0.00 in0.0 mm
03:00 AM 63.0°F17.2°C 62.1°F16.7°C 97% 0.7 mph NW1.1 kmh NW 3.1 mph5.0 kmh 29.81 in1009.5 mb 0.00 in0.0 mm 0.00 in0.0 mm 0.00 in0.0 mm
03:10 AM 62.6°F17.0°C 61.8°F16.6°C 97% Calm Calm 3.1 mph5.0 kmh 29.82 in1009.8 mb 0.00 in0.0 mm 0.00 in0.0 mm 0.00 in0.0 mm
03:20 AM 62.4°F16.9°C 61.9°F16.6°C 98% Calm Calm -- 29.82 in1009.8 mb 0.00 in0.0 mm 0.00 in0.0 mm 0.00 in0.0 mm
03:30 AM 62.4°F16.9°C 61.9°F16.6°C 98% Calm Calm -- 29.82 in1009.8 mb 0.00 in0.0 mm 0.00 in0.0 mm 0.00 in0.0 mm
03:40 AM 62.2°F16.8°C 61.7°F16.5°C 98% Calm Calm 3.8 mph6.1 kmh 29.82 in1009.8 mb 0.00 in0.0 mm 0.00 in0.0 mm 0.00 in0.0 mm
03:50 AM 62.1°F16.7°C 61.5°F16.4°C 98% Calm Calm -- 29.82 in1009.8 mb 0.00 in0.0 mm 0.00 in0.0 mm 0.00 in0.0 mm
04:00 AM 62.2°F16.8°C 61.7°F16.5°C 98% Calm Calm -- 29.82 in1009.8 mb 0.00 in0.0 mm 0.00 in0.0 mm 0.00 in0.0 mm
04:10 AM 62.2°F16.8°C 61.7°F16.5°C 98% Calm Calm -- 29.82 in1009.8 mb 0.00 in0.0 mm 0.00 in0.0 mm 0.00 in0.0 mm
04:20 AM 61.9°F16.6°C 61.3°F16.3°C 98% Calm Calm -- 29.82 in1009.8 mb 0.00 in0.0 mm 0.00 in0.0 mm 0.00 in0.0 mm
04:30 AM 61.7°F16.5°C 61.1°F16.2°C 98% 2.2 mph N3.5 kmh N 4.5 mph7.2 kmh 29.82 in1009.8 mb 0.00 in0.0 mm 0.00 in0.0 mm 0.00 in0.0 mm
04:40 AM 61.3°F16.3°C 60.8°F16.0°C 98% 2.2 mph NNW3.5 kmh NNW 4.5 mph7.2 kmh 29.82 in1009.8 mb 0.00 in0.0 mm 0.00 in0.0 mm 0.00 in0.0 mm
04:50 AM 61.2°F16.2°C 60.6°F15.9°C 98% 2.2 mph NNW3.5 kmh NNW 5.4 mph8.7 kmh 29.83 in1010.2 mb 0.00 in0.0 mm 0.00 in0.0 mm 0.00 in0.0 mm
05:00 AM 61.2°F16.2°C 60.6°F15.9°C 98% 2.2 mph NW3.5 kmh NW 5.4 mph8.7 kmh 29.82 in1009.8 mb 0.00 in0.0 mm 0.00 in0.0 mm 0.00 in0.0 mm
05:10 AM 61.2°F16.2°C 60.6°F15.9°C 98% 3.1 mph NW5.0 kmh NW 4.5 mph7.2 kmh 29.82 in1009.8 mb 0.00 in0.0 mm 0.00 in0.0 mm 0.00 in0.0 mm
05:20 AM 61.2°F16.2°C 60.6°F15.9°C 98% 2.2 mph NNW3.5 kmh NNW 5.4 mph8.7 kmh 29.83 in1010.2 mb 0.00 in0.0 mm 0.00 in0.0 mm 0.00 in0.0 mm
05:30 AM 61.5°F16.4°C 61.0°F16.1°C 98% 1.6 mph NW2.6 kmh NW 5.4 mph8.7 kmh 29.82 in1009.8 mb 0.00 in0.0 mm 0.00 in0.0 mm 0.00 in0.0 mm
05:40 AM 61.7°F16.5°C 61.1°F16.2°C 98% 4.5 mph NNW7.2 kmh NNW 6.0 mph9.7 kmh 29.83 in1010.2 mb 0.00 in0.0 mm 0.00 in0.0 mm 0.00 in0.0 mm
05:50 AM 61.9°F16.6°C 61.3°F16.3°C 98% 3.8 mph NW6.1 kmh NW 6.0 mph9.7 kmh 29.83 in1010.2 mb 0.00 in0.0 mm 0.00 in0.0 mm 0.00 in0.0 mm
06:00 AM 61.9°F16.6°C 61.3°F16.3°C 98% 5.4 mph NNW8.7 kmh NNW 8.3 mph13.4 kmh 29.83 in1010.2 mb 0.00 in0.0 mm 0.00 in0.0 mm 0.00 in0.0 mm
06:10 AM 62.8°F17.1°C 61.9°F16.6°C 97% 4.5 mph NNW7.2 kmh NNW 7.6 mph12.2 kmh 29.83 in1010.2 mb 0.00 in0.0 mm 0.00 in0.0 mm 0.00 in0.0 mm
06:20 AM 63.5°F17.5°C 62.7°F17.1°C 97% 3.1 mph NW5.0 kmh NW 9.2 mph14.8 kmh 29.83 in1010.2 mb 0.00 in0.0 mm 0.00 in0.0 mm 0.00 in0.0 mm
06:30 AM 64.2°F17.9°C 63.4°F17.4°C 97% 4.5 mph NW7.2 kmh NW 8.3 mph13.4 kmh 29.84 in1010.5 mb 0.00 in0.0 mm 0.00 in0.0 mm 0.00 in0.0 mm
06:40 AM 65.8°F18.8°C 65.6°F18.7°C 99% 1.6 mph NNW2.6 kmh NNW 6.0 mph9.7 kmh 29.84 in1010.5 mb 0.00 in0.0 mm 0.00 in0.0 mm 0.00 in0.0 mm
06:50 AM 67.6°F19.8°C 67.4°F19.7°C 99% 3.1 mph NNW5.0 kmh NNW 5.4 mph8.7 kmh 29.84 in1010.5 mb 0.00 in0.0 mm 0.00 in0.0 mm 0.00 in0.0 mm
07:00 AM 69.3°F20.7°C 68.4°F20.2°C 97% 3.1 mph NW5.0 kmh NW 4.5 mph7.2 kmh 29.84 in1010.5 mb 0.00 in0.0 mm 0.00 in0.0 mm 0.00 in0.0 mm
07:10 AM 70.3°F21.3°C 67.3°F19.6°C 90% 1.6 mph NNW2.6 kmh NNW 6.0 mph9.7 kmh 29.84 in1010.5 mb 0.00 in0.0 mm 0.00 in0.0 mm 0.00 in0.0 mm
07:20 AM 71.2°F21.8°C 67.2°F19.6°C 87% 3.8 mph NW6.1 kmh NW 6.9 mph11.1 kmh 29.83 in1010.2 mb 0.00 in0.0 mm 0.00 in0.0 mm 0.00 in0.0 mm
07:30 AM 72.0°F22.2°C 66.6°F19.2°C 83% 2.2 mph NW3.5 kmh NW 6.9 mph11.1 kmh 29.83 in1010.2 mb 0.00 in0.0 mm 0.00 in0.0 mm 0.00 in0.0 mm
07:40 AM 74.1°F23.4°C 68.0°F20.0°C 81% 3.8 mph N6.1 kmh N 6.9 mph11.1 kmh 29.83 in1010.2 mb 0.00 in0.0 mm 0.00 in0.0 mm 0.00 in0.0 mm
07:50 AM 74.5°F23.6°C 66.5°F19.2°C 76% 3.8 mph N6.1 kmh N 8.3 mph13.4 kmh 29.83 in1010.2 mb 0.00 in0.0 mm 0.00 in0.0 mm 0.00 in0.0 mm
08:00 AM 75.9°F24.4°C 65.9°F18.8°C 71% 3.8 mph NNW6.1 kmh NNW 8.3 mph13.4 kmh 29.83 in1010.2 mb 0.00 in0.0 mm 0.00 in0.0 mm 0.00 in0.0 mm
08:10 AM 77.5°F25.3°C 66.2°F19.0°C 68% 3.1 mph N5.0 kmh N 8.3 mph13.4 kmh 29.83 in1010.2 mb 0.00 in0.0 mm 0.00 in0.0 mm 0.00 in0.0 mm
08:20 AM 77.9°F25.5°C 66.5°F19.2°C 68% 4.5 mph NNW7.2 kmh NNW 7.6 mph12.2 kmh 29.82 in1009.8 mb 0.00 in0.0 mm 0.00 in0.0 mm 0.00 in0.0 mm
08:30 AM 78.4°F25.8°C 65.3°F18.5°C 64% 5.4 mph N8.7 kmh N 8.3 mph13.4 kmh 29.82 in1009.8 mb 0.00 in0.0 mm 0.00 in0.0 mm 0.00 in0.0 mm
08:40 AM 79.7°F26.5°C 64.1°F17.8°C 59% 3.1 mph NE5.0 kmh NE 9.2 mph14.8 kmh 29.82 in1009.8 mb 0.00 in0.0 mm 0.00 in0.0 mm 0.00 in0.0 mm
08:50 AM 79.3°F26.3°C 63.8°F17.7°C 59% 5.4 mph NNE8.7 kmh NNE 9.8 mph15.8 kmh 29.81 in1009.5 mb 0.00 in0.0 mm 0.00 in0.0 mm 0.00 in0.0 mm
09:00 AM 79.2°F26.2°C 64.1°F17.8°C 60% 5.4 mph N8.7 kmh N 11.4 mph18.3 kmh 29.81 in1009.5 mb 0.00 in0.0 mm 0.00 in0.0 mm 0.00 in0.0 mm
09:10 AM 79.9°F26.6°C 64.3°F17.9°C 59% 4.5 mph NNW7.2 kmh NNW 12.1 mph19.5 kmh 29.81 in1009.5 mb 0.00 in0.0 mm 0.00 in0.0 mm 0.00 in0.0 mm
09:20 AM 80.2°F26.8°C 64.7°F18.2°C 59% 3.1 mph NNW5.0 kmh NNW 10.7 mph17.2 kmh 29.81 in1009.5 mb 0.00 in0.0 mm 0.00 in0.0 mm 0.00 in0.0 mm
09:30 AM 80.8°F27.1°C 65.2°F18.4°C 59% 6.0 mph NNW9.7 kmh NNW 9.8 mph15.8 kmh 29.81 in1009.5 mb 0.00 in0.0 mm 0.00 in0.0 mm 0.00 in0.0 mm
09:40 AM 81.0°F27.2°C 65.8°F18.8°C 60% 5.4 mph N8.7 kmh N 9.2 mph14.8 kmh 29.81 in1009.5 mb 0.00 in0.0 mm 0.00 in0.0 mm 0.00 in0.0 mm
09:50 AM 81.7°F27.6°C 65.5°F18.6°C 58% 5.4 mph NW8.7 kmh NW 9.2 mph14.8 kmh 29.81 in1009.5 mb 0.00 in0.0 mm 0.00 in0.0 mm 0.00 in0.0 mm
10:00 AM 81.9°F27.7°C 65.2°F18.4°C 57% 7.6 mph N12.2 kmh N 10.7 mph17.2 kmh 29.80 in1009.1 mb 0.00 in0.0 mm 0.00 in0.0 mm 0.00 in0.0 mm
10:10 AM 81.7°F27.6°C 62.9°F17.2°C 53% 6.0 mph N9.7 kmh N 13.0 mph20.9 kmh 29.80 in1009.1 mb 0.00 in0.0 mm 0.00 in0.0 mm 0.00 in0.0 mm
10:20 AM 83.1°F28.4°C 65.3°F18.5°C 55% 3.1 mph N5.0 kmh N 9.2 mph14.8 kmh 29.80 in1009.1 mb 0.00 in0.0 mm 0.00 in0.0 mm 0.00 in0.0 mm
10:30 AM 83.1°F28.4°C 64.3°F17.9°C 53% 3.8 mph N6.1 kmh N 12.1 mph19.5 kmh 29.80 in1009.1 mb 0.00 in0.0 mm 0.00 in0.0 mm 0.00 in0.0 mm
10:40 AM 83.8°F28.8°C 64.4°F18.0°C 52% 2.2 mph N3.5 kmh N 9.2 mph14.8 kmh 29.80 in1009.1 mb 0.00 in0.0 mm 0.00 in0.0 mm 0.00 in0.0 mm
10:50 AM 85.8°F29.9°C 68.4°F20.2°C 56% 3.1 mph WSW5.0 kmh WSW 8.3 mph13.4 kmh 29.80 in1009.1 mb 0.00 in0.0 mm 0.00 in0.0 mm 0.00 in0.0 mm
11:00 AM 84.0°F28.9°C 65.6°F18.7°C 54% 3.8 mph NNW6.1 kmh NNW 7.6 mph12.2 kmh 29.80 in1009.1 mb 0.00 in0.0 mm 0.00 in0.0 mm 0.00 in0.0 mm
11:10 AM 83.5°F28.6°C 67.2°F19.6°C 58% 3.8 mph NW6.1 kmh NW 8.3 mph13.4 kmh 29.80 in1009.1 mb 0.00 in0.0 mm 0.00 in0.0 mm 0.00 in0.0 mm
11:20 AM 80.6°F27.0°C 68.7°F20.4°C 67% 6.9 mph ESE11.1 kmh ESE 11.4 mph18.3 kmh 29.79 in1008.8 mb 0.00 in0.0 mm 0.00 in0.0 mm 0.00 in0.0 mm
11:30 AM 79.5°F26.4°C 68.9°F20.5°C 70% 9.2 mph SE14.8 kmh SE 12.1 mph19.5 kmh 29.80 in1009.1 mb 0.00 in0.0 mm 0.00 in0.0 mm 0.00 in0.0 mm
11:40 AM 79.3°F26.3°C 68.3°F20.2°C 69% 6.0 mph ESE9.7 kmh ESE 13.0 mph20.9 kmh 29.80 in1009.1 mb 0.00 in0.0 mm 0.00 in0.0 mm 0.00 in0.0 mm
11:50 AM 79.9°F26.6°C 68.0°F20.0°C 67% 3.8 mph SE6.1 kmh SE 9.2 mph14.8 kmh 29.80 in1009.1 mb 0.00 in0.0 mm 0.00 in0.0 mm 0.00 in0.0 mm
12:00 PM 79.3°F26.3°C 66.6°F19.2°C 65% 6.0 mph S9.7 kmh S 12.1 mph19.5 kmh 29.79 in1008.8 mb 0.00 in0.0 mm 0.00 in0.0 mm 0.00 in0.0 mm
12:10 PM 79.5°F26.4°C 65.9°F18.8°C 63% 6.0 mph SE9.7 kmh SE 13.0 mph20.9 kmh 29.79 in1008.8 mb 0.00 in0.0 mm 0.00 in0.0 mm 0.00 in0.0 mm
12:20 PM 79.9°F26.6°C 66.7°F19.3°C 64% 6.0 mph E9.7 kmh E 10.7 mph17.2 kmh 29.80 in1009.1 mb 0.00 in0.0 mm 0.00 in0.0 mm 0.00 in0.0 mm
12:30 PM 81.1°F27.3°C 66.9°F19.4°C 62% 3.8 mph SE6.1 kmh SE 9.8 mph15.8 kmh 29.79 in1008.8 mb 0.00 in0.0 mm 0.00 in0.0 mm 0.00 in0.0 mm
12:40 PM 81.1°F27.3°C 66.5°F19.2°C 61% 6.0 mph S9.7 kmh S 9.8 mph15.8 kmh 29.79 in1008.8 mb 0.00 in0.0 mm 0.00 in0.0 mm 0.00 in0.0 mm
12:50 PM 81.1°F27.3°C 66.0°F18.9°C 60% 5.4 mph ESE8.7 kmh ESE 9.8 mph15.8 kmh 29.79 in1008.8 mb 0.00 in0.0 mm 0.00 in0.0 mm 0.00 in0.0 mm
01:00 PM 81.1°F27.3°C 66.0°F18.9°C 60% 4.5 mph ESE7.2 kmh ESE 10.7 mph17.2 kmh 29.79 in1008.8 mb 0.00 in0.0 mm 0.00 in0.0 mm 0.00 in0.0 mm
01:10 PM 81.1°F27.3°C 65.5°F18.6°C 59% 8.3 mph SE13.4 kmh SE 12.1 mph19.5 kmh 29.79 in1008.8 mb 0.00 in0.0 mm 0.00 in0.0 mm 0.00 in0.0 mm
01:20 PM 82.2°F27.9°C 65.0°F18.3°C 56% 6.0 mph SE9.7 kmh SE 9.8 mph15.8 kmh 29.79 in1008.8 mb 0.00 in0.0 mm 0.00 in0.0 mm 0.00 in0.0 mm
01:30 PM 82.2°F27.9°C 65.5°F18.6°C 57% 5.4 mph ESE8.7 kmh ESE 9.8 mph15.8 kmh 29.79 in1008.8 mb 0.00 in0.0 mm 0.00 in0.0 mm 0.00 in0.0 mm
01:40 PM 81.9°F27.7°C 65.2°F18.4°C 57% 4.5 mph ESE7.2 kmh ESE 10.7 mph17.2 kmh 29.79 in1008.8 mb 0.00 in0.0 mm 0.00 in0.0 mm 0.00 in0.0 mm
01:50 PM 82.2°F27.9°C 65.0°F18.3°C 56% 6.0 mph SE9.7 kmh SE 10.7 mph17.2 kmh 29.79 in1008.8 mb 0.00 in0.0 mm 0.00 in0.0 mm 0.00 in0.0 mm
02:00 PM 83.1°F28.4°C 65.3°F18.5°C 55% 4.5 mph ESE7.2 kmh ESE 9.2 mph14.8 kmh 29.79 in1008.8 mb 0.00 in0.0 mm 0.00 in0.0 mm 0.00 in0.0 mm
02:10 PM 83.3°F28.5°C 66.0°F18.9°C 56% 6.9 mph SE11.1 kmh SE 9.8 mph15.8 kmh 29.79 in1008.8 mb 0.00 in0.0 mm 0.00 in0.0 mm 0.00 in0.0 mm
02:20 PM 83.8°F28.8°C 64.9°F18.3°C 53% 6.0 mph SE9.7 kmh SE 9.8 mph15.8 kmh 29.78 in1008.5 mb 0.00 in0.0 mm 0.00 in0.0 mm 0.00 in0.0 mm
02:30 PM 83.8°F28.8°C 64.9°F18.3°C 53% 3.8 mph SE6.1 kmh SE 10.7 mph17.2 kmh 29.78 in1008.5 mb 0.00 in0.0 mm 0.00 in0.0 mm 0.00 in0.0 mm
02:40 PM 84.2°F29.0°C 64.2°F17.9°C 51% 6.0 mph SE9.7 kmh SE 9.2 mph14.8 kmh 29.77 in1008.1 mb 0.00 in0.0 mm 0.00 in0.0 mm 0.00 in0.0 mm
02:50 PM 84.6°F29.2°C 63.4°F17.4°C 49% 4.5 mph ESE7.2 kmh ESE 8.3 mph13.4 kmh 29.78 in1008.5 mb 0.00 in0.0 mm 0.00 in0.0 mm 0.00 in0.0 mm
03:00 PM 85.8°F29.9°C 64.5°F18.1°C 49% 3.8 mph ESE6.1 kmh ESE 9.2 mph14.8 kmh 29.77 in1008.1 mb 0.00 in0.0 mm 0.00 in0.0 mm 0.00 in0.0 mm
03:10 PM 86.2°F30.1°C 63.6°F17.6°C 47% 6.0 mph SE9.7 kmh SE 9.2 mph14.8 kmh 29.77 in1008.1 mb 0.00 in0.0 mm 0.00 in0.0 mm 0.00 in0.0 mm
03:20 PM 86.2°F30.1°C 63.6°F17.6°C 47% 4.5 mph S7.2 kmh S 6.9 mph11.1 kmh 29.76 in1007.8 mb 0.00 in0.0 mm 0.00 in0.0 mm 0.00 in0.0 mm
03:30 PM 85.8°F29.9°C 63.3°F17.4°C 47% 6.0 mph SE9.7 kmh SE 8.3 mph13.4 kmh 29.76 in1007.8 mb 0.00 in0.0 mm 0.00 in0.0 mm 0.00 in0.0 mm
03:40 PM 85.6°F29.8°C 64.3°F17.9°C 49% 5.4 mph E8.7 kmh E 9.8 mph15.8 kmh 29.76 in1007.8 mb 0.00 in0.0 mm 0.00 in0.0 mm 0.00 in0.0 mm
03:50 PM 84.9°F29.4°C 63.7°F17.6°C 49% 3.8 mph SE6.1 kmh SE 9.2 mph14.8 kmh 29.76 in1007.8 mb 0.00 in0.0 mm 0.00 in0.0 mm 0.00 in0.0 mm
04:00 PM 85.6°F29.8°C 63.8°F17.7°C 48% 3.1 mph SE5.0 kmh SE 9.2 mph14.8 kmh 29.76 in1007.8 mb 0.00 in0.0 mm 0.00 in0.0 mm 0.00 in0.0 mm
04:10 PM 85.8°F29.9°C 63.9°F17.7°C 48% 3.8 mph SE6.1 kmh SE 7.6 mph12.2 kmh 29.75 in1007.5 mb 0.00 in0.0 mm 0.00 in0.0 mm 0.00 in0.0 mm
04:20 PM 86.0°F30.0°C 63.5°F17.5°C 47% 5.4 mph SE8.7 kmh SE 7.6 mph12.2 kmh 29.76 in1007.8 mb 0.00 in0.0 mm 0.00 in0.0 mm 0.00 in0.0 mm
04:30 PM 86.5°F30.3°C 64.0°F17.8°C 47% 5.4 mph SE8.7 kmh SE 8.3 mph13.4 kmh 29.75 in1007.5 mb 0.00 in0.0 mm 0.00 in0.0 mm 0.00 in0.0 mm
04:40 PM 84.0°F28.9°C 63.4°F17.4°C 50% 3.8 mph SE6.1 kmh SE 7.6 mph12.2 kmh 29.75 in1007.5 mb 0.00 in0.0 mm 0.00 in0.0 mm 0.00 in0.0 mm
04:50 PM 80.6°F27.0°C 63.0°F17.2°C 55% 3.8 mph ESE6.1 kmh ESE 6.9 mph11.1 kmh 29.75 in1007.5 mb 0.00 in0.0 mm 0.00 in0.0 mm 0.00 in0.0 mm
05:00 PM 79.2°F26.2°C 64.6°F18.1°C 61% 1.6 mph SE2.6 kmh SE 6.0 mph9.7 kmh 29.75 in1007.5 mb 0.00 in0.0 mm 0.00 in0.0 mm 0.00 in0.0 mm
05:10 PM 78.6°F25.9°C 65.5°F18.6°C 64% 1.6 mph ESE2.6 kmh ESE 5.4 mph8.7 kmh 29.75 in1007.5 mb 0.00 in0.0 mm 0.00 in0.0 mm 0.00 in0.0 mm
05:20 PM 78.3°F25.7°C 65.1°F18.4°C 64% 1.6 mph SE2.6 kmh SE 4.5 mph7.2 kmh 29.75 in1007.5 mb 0.00 in0.0 mm 0.00 in0.0 mm 0.00 in0.0 mm
05:30 PM 78.3°F25.7°C 65.1°F18.4°C 64% 0.7 mph SE1.1 kmh SE 4.5 mph7.2 kmh 29.75 in1007.5 mb 0.00 in0.0 mm 0.00 in0.0 mm 0.00 in0.0 mm
05:40 PM 78.6°F25.9°C 65.0°F18.3°C 63% 1.6 mph ESE2.6 kmh ESE 3.8 mph6.1 kmh 29.75 in1007.5 mb 0.00 in0.0 mm 0.00 in0.0 mm 0.00 in0.0 mm
05:50 PM 79.5°F26.4°C 65.4°F18.6°C 62% 1.6 mph E2.6 kmh E 3.8 mph6.1 kmh 29.76 in1007.8 mb 0.00 in0.0 mm 0.00 in0.0 mm 0.00 in0.0 mm
06:00 PM 82.8°F28.2°C 64.5°F18.1°C 54% 3.1 mph ENE5.0 kmh ENE 4.5 mph7.2 kmh 29.76 in1007.8 mb 0.00 in0.0 mm 0.00 in0.0 mm 0.00 in0.0 mm
06:10 PM 83.8°F28.8°C 64.9°F18.3°C 53% 3.8 mph NE6.1 kmh NE 5.4 mph8.7 kmh 29.76 in1007.8 mb 0.00 in0.0 mm 0.00 in0.0 mm 0.00 in0.0 mm
06:20 PM 83.3°F28.5°C 65.5°F18.6°C 55% 3.1 mph ENE5.0 kmh ENE 7.6 mph12.2 kmh 29.76 in1007.8 mb 0.00 in0.0 mm 0.00 in0.0 mm 0.00 in0.0 mm
06:30 PM 83.3°F28.5°C 66.0°F18.9°C 56% 2.2 mph ENE3.5 kmh ENE 6.9 mph11.1 kmh 29.76 in1007.8 mb 0.00 in0.0 mm 0.00 in0.0 mm 0.00 in0.0 mm
06:40 PM 81.9°F27.7°C 66.7°F19.3°C 60% 3.8 mph NE6.1 kmh NE 6.0 mph9.7 kmh 29.76 in1007.8 mb 0.00 in0.0 mm 0.00 in0.0 mm 0.00 in0.0 mm
06:50 PM 82.8°F28.2°C 65.5°F18.6°C 56% 3.1 mph NE5.0 kmh NE 6.9 mph11.1 kmh 29.76 in1007.8 mb 0.00 in0.0 mm 0.00 in0.0 mm 0.00 in0.0 mm
07:00 PM 81.9°F27.7°C 65.2°F18.4°C 57% 2.2 mph NE3.5 kmh NE 6.9 mph11.1 kmh 29.76 in1007.8 mb 0.00 in0.0 mm 0.00 in0.0 mm 0.00 in0.0 mm
07:10 PM 81.9°F27.7°C 66.2°F19.0°C 59% 2.2 mph NE3.5 kmh NE 5.4 mph8.7 kmh 29.77 in1008.1 mb 0.00 in0.0 mm 0.00 in0.0 mm 0.00 in0.0 mm
07:20 PM 80.2°F26.8°C 66.1°F18.9°C 62% 1.6 mph N2.6 kmh N 5.4 mph8.7 kmh 29.77 in1008.1 mb 0.00 in0.0 mm 0.00 in0.0 mm 0.00 in0.0 mm
07:30 PM 78.6°F25.9°C 65.9°F18.8°C 65% 2.2 mph N3.5 kmh N 3.8 mph6.1 kmh 29.77 in1008.1 mb 0.00 in0.0 mm 0.00 in0.0 mm 0.00 in0.0 mm
07:40 PM 77.5°F25.3°C 66.6°F19.2°C 69% 1.6 mph N2.6 kmh N 3.8 mph6.1 kmh 29.77 in1008.1 mb 0.00 in0.0 mm 0.00 in0.0 mm 0.00 in0.0 mm
07:50 PM 76.8°F24.9°C 67.9°F19.9°C 74% 2.2 mph NNW3.5 kmh NNW 4.5 mph7.2 kmh 29.77 in1008.1 mb 0.00 in0.0 mm 0.00 in0.0 mm 0.00 in0.0 mm
08:00 PM 76.1°F24.5°C 67.6°F19.8°C 75% 1.6 mph N2.6 kmh N 4.5 mph7.2 kmh 29.77 in1008.1 mb 0.00 in0.0 mm 0.00 in0.0 mm 0.00 in0.0 mm
08:10 PM 75.6°F24.2°C 67.5°F19.7°C 76% 3.1 mph N5.0 kmh N 3.8 mph6.1 kmh 29.77 in1008.1 mb 0.00 in0.0 mm 0.00 in0.0 mm 0.00 in0.0 mm
08:20 PM 74.8°F23.8°C 67.6°F19.8°C 78% 3.8 mph NNW6.1 kmh NNW 5.4 mph8.7 kmh 29.77 in1008.1 mb 0.00 in0.0 mm 0.00 in0.0 mm 0.00 in0.0 mm
08:30 PM 74.5°F23.6°C 67.6°F19.8°C 79% 4.5 mph NW7.2 kmh NW 8.3 mph13.4 kmh 29.78 in1008.5 mb 0.00 in0.0 mm 0.00 in0.0 mm 0.00 in0.0 mm
08:40 PM 73.9°F23.3°C 67.1°F19.5°C 79% 3.1 mph NW5.0 kmh NW 7.6 mph12.2 kmh 29.78 in1008.5 mb 0.00 in0.0 mm 0.00 in0.0 mm 0.00 in0.0 mm
08:50 PM 73.0°F22.8°C 66.9°F19.4°C 81% 3.1 mph NW5.0 kmh NW 4.5 mph7.2 kmh 29.78 in1008.5 mb 0.00 in0.0 mm 0.00 in0.0 mm 0.00 in0.0 mm
09:00 PM 72.9°F22.7°C 66.7°F19.3°C 81% 3.1 mph NNW5.0 kmh NNW 6.0 mph9.7 kmh 29.79 in1008.8 mb 0.00 in0.0 mm 0.00 in0.0 mm 0.00 in0.0 mm
09:10 PM 72.9°F22.7°C 66.0°F18.9°C 79% 3.8 mph NNW6.1 kmh NNW 6.0 mph9.7 kmh 29.78 in1008.5 mb 0.00 in0.0 mm 0.00 in0.0 mm 0.00 in0.0 mm
09:20 PM 72.9°F22.7°C 65.3°F18.5°C 77% 4.5 mph NNW7.2 kmh NNW 6.0 mph9.7 kmh 29.79 in1008.8 mb 0.00 in0.0 mm 0.00 in0.0 mm 0.00 in0.0 mm
09:30 PM 72.9°F22.7°C 64.9°F18.3°C 76% 3.8 mph NNW6.1 kmh NNW 6.0 mph9.7 kmh 29.78 in1008.5 mb 0.00 in0.0 mm 0.00 in0.0 mm 0.00 in0.0 mm
09:40 PM 72.3°F22.4°C 64.0°F17.8°C 75% 2.2 mph NNW3.5 kmh NNW 6.0 mph9.7 kmh 29.79 in1008.8 mb 0.00 in0.0 mm 0.00 in0.0 mm 0.00 in0.0 mm
09:50 PM 72.3°F22.4°C 63.6°F17.6°C 74% 3.1 mph N5.0 kmh N 6.0 mph9.7 kmh 29.78 in1008.5 mb 0.00 in0.0 mm 0.00 in0.0 mm 0.00 in0.0 mm
10:00 PM 72.3°F22.4°C 63.6°F17.6°C 74% 3.1 mph N5.0 kmh N 5.4 mph8.7 kmh 29.78 in1008.5 mb 0.00 in0.0 mm 0.00 in0.0 mm 0.00 in0.0 mm
10:10 PM 72.3°F22.4°C 63.2°F17.3°C 73% 3.8 mph N6.1 kmh N 6.9 mph11.1 kmh 29.78 in1008.5 mb 0.00 in0.0 mm 0.00 in0.0 mm 0.00 in0.0 mm
10:20 PM 72.0°F22.2°C 62.9°F17.2°C 73% 4.5 mph NNW7.2 kmh NNW 6.0 mph9.7 kmh 29.78 in1008.5 mb 0.00 in0.0 mm 0.00 in0.0 mm 0.00 in0.0 mm
10:30 PM 71.6°F22.0°C 62.5°F16.9°C 73% 3.8 mph N6.1 kmh N 6.9 mph11.1 kmh 29.78 in1008.5 mb 0.00 in0.0 mm 0.00 in0.0 mm 0.00 in0.0 mm
10:40 PM 71.4°F21.9°C 62.7°F17.1°C 74% 4.5 mph N7.2 kmh N 6.9 mph11.1 kmh 29.78 in1008.5 mb 0.00 in0.0 mm 0.00 in0.0 mm 0.00 in0.0 mm
10:50 PM 71.2°F21.8°C 62.6°F17.0°C 74% 4.5 mph N7.2 kmh N 8.3 mph13.4 kmh 29.78 in1008.5 mb 0.00 in0.0 mm 0.00 in0.0 mm 0.00 in0.0 mm
11:00 PM 71.2°F21.8°C 62.6°F17.0°C 74% 3.8 mph N6.1 kmh N 9.2 mph14.8 kmh 29.78 in1008.5 mb 0.00 in0.0 mm 0.00 in0.0 mm 0.00 in0.0 mm
11:10 PM 71.4°F21.9°C 62.7°F17.1°C 74% 4.5 mph N7.2 kmh N 8.3 mph13.4 kmh 29.78 in1008.5 mb 0.00 in0.0 mm 0.00 in0.0 mm 0.00 in0.0 mm
11:20 PM 71.6°F22.0°C 62.1°F16.7°C 72% 3.8 mph NNW6.1 kmh NNW 9.2 mph14.8 kmh 29.77 in1008.1 mb 0.00 in0.0 mm 0.00 in0.0 mm 0.00 in0.0 mm
11:30 PM 71.6°F22.0°C 62.1°F16.7°C 72% 4.5 mph N7.2 kmh N 9.2 mph14.8 kmh 29.77 in1008.1 mb 0.00 in0.0 mm 0.00 in0.0 mm 0.00 in0.0 mm
11:40 PM 71.1°F21.7°C 62.4°F16.9°C 74% 3.8 mph N6.1 kmh N 8.3 mph13.4 kmh 29.77 in1008.1 mb 0.00 in0.0 mm 0.00 in0.0 mm 0.00 in0.0 mm
11:50 PM 70.7°F21.5°C 62.0°F16.7°C 74% 4.5 mph N7.2 kmh N 8.3 mph13.4 kmh 29.77 in1008.1 mb 0.00 in0.0 mm 0.00 in0.0 mm 0.00 in0.0 mm